createdAt,value
2022-11-26T00:00:35.738Z,49.3
2022-11-26T00:05:53.937Z,49.4
2022-11-26T00:11:12.174Z,48.8
2022-11-26T00:16:31.066Z,49.3
2022-11-26T00:21:49.609Z,48.8
2022-11-26T00:27:08.420Z,49.6
2022-11-26T00:32:26.345Z,48.8
2022-11-26T00:37:44.844Z,48.8
2022-11-26T00:43:03.075Z,49.5
2022-11-26T00:48:21.833Z,49.8
2022-11-26T00:53:40.310Z,49
2022-11-26T00:58:59.102Z,49.1
2022-11-26T01:04:17.582Z,49.8
2022-11-26T01:09:36.051Z,49.6
2022-11-26T01:14:54.557Z,46.9
2022-11-26T01:20:13.035Z,48.2
2022-11-26T01:25:31.518Z,49.2
2022-11-26T01:30:50.017Z,48.7
2022-11-26T01:36:07.928Z,49.4
2022-11-26T01:41:26.425Z,49
2022-11-26T01:46:45.031Z,49.1
2022-11-26T01:52:03.259Z,49
2022-11-26T01:57:21.190Z,48.9
2022-11-26T02:02:39.605Z,49.5
2022-11-26T02:07:58.169Z,49.4
2022-11-26T02:13:16.923Z,49.8
2022-11-26T02:18:35.711Z,48.7
2022-11-26T02:23:53.921Z,50.1
2022-11-26T02:29:12.692Z,49.8
2022-11-26T02:34:39.176Z,49.3
2022-11-26T02:39:58.040Z,49.1
2022-11-26T02:45:16.800Z,49.7
2022-11-26T02:50:35.942Z,49.9
2022-11-26T02:55:54.413Z,49.1
2022-11-26T03:01:12.853Z,49.2
2022-11-26T03:06:31.712Z,49.7
2022-11-26T03:11:50.217Z,49.2
2022-11-26T03:17:08.558Z,49.8
2022-11-26T03:22:26.794Z,49.6
2022-11-26T03:27:45.530Z,49.8
2022-11-26T03:33:04.027Z,49.6
2022-11-26T03:38:22.527Z,50.1
2022-11-26T03:43:41.009Z,49.3
2022-11-26T03:48:59.507Z,50.4
2022-11-26T03:54:18.020Z,50.6
2022-11-26T03:59:36.484Z,50.4
2022-11-26T04:04:55.260Z,49.3
2022-11-26T04:10:13.204Z,50.1
2022-11-26T04:15:31.664Z,49.4
2022-11-26T04:20:53.902Z,50.6
2022-11-26T04:26:12.687Z,49.6
2022-11-26T04:31:31.602Z,50.3
2022-11-26T04:36:49.864Z,50.1
2022-11-26T04:42:08.370Z,49.8
2022-11-26T04:47:26.551Z,49.3
2022-11-26T04:52:45.063Z,49.3
2022-11-26T04:58:03.067Z,49.9
2022-11-26T05:03:21.282Z,49.9
2022-11-26T05:08:39.760Z,50.3
2022-11-26T05:13:58.298Z,49.8
2022-11-26T05:19:17.298Z,49.5
2022-11-26T05:24:36.110Z,49.5
2022-11-26T05:29:54.880Z,50.7
2022-11-26T05:35:13.386Z,49.9
2022-11-26T05:40:31.592Z,49.3
2022-11-26T05:45:50.406Z,49.5
2022-11-26T05:51:08.908Z,49.9
2022-11-26T05:56:27.115Z,49.2
2022-11-26T06:01:45.143Z,49.2
2022-11-26T06:07:03.522Z,50.2
2022-11-26T06:12:22.010Z,49.5
2022-11-26T06:17:40.813Z,49.2
2022-11-26T06:22:58.994Z,49.4
2022-11-26T06:28:17.747Z,49.2
2022-11-26T06:33:36.268Z,49.8
2022-11-26T06:38:54.433Z,50
2022-11-26T06:44:13.204Z,49.5
2022-11-26T06:49:31.448Z,50
2022-11-26T06:54:49.637Z,49.5
2022-11-26T07:00:08.103Z,49.6
2022-11-26T07:05:26.636Z,49.2
2022-11-26T07:10:49.625Z,49.4
2022-11-26T07:16:08.409Z,49.8
2022-11-26T07:21:26.906Z,50.5
2022-11-26T07:26:45.404Z,50.3
2022-11-26T07:32:04.077Z,49.3
2022-11-26T07:37:22.606Z,49.2
2022-11-26T07:42:40.782Z,49.6
2022-11-26T07:47:59.543Z,49.5
2022-11-26T07:53:18.335Z,51.1
2022-11-26T07:58:36.801Z,50.5
2022-11-26T08:03:55.301Z,49.9
2022-11-26T08:09:13.802Z,50
2022-11-26T08:14:32.563Z,49.7
2022-11-26T08:19:51.307Z,49.9
2022-11-26T08:25:09.524Z,44.6
2022-11-26T08:30:28.262Z,48.4
2022-11-26T08:36:09.036Z,48.1
2022-11-26T08:41:27.220Z,49.1
2022-11-26T08:46:45.973Z,49
2022-11-26T08:52:04.458Z,49.5
2022-11-26T08:57:23.259Z,49.1
2022-11-26T09:02:42.312Z,48.6
2022-11-26T09:08:01.292Z,48.8
2022-11-26T09:13:21.752Z,49
2022-11-26T09:18:40.030Z,49.6
2022-11-26T09:23:43.236Z,49.4
2022-11-26T09:29:02.088Z,48.8
2022-11-26T09:34:04.673Z,48.6
2022-11-26T09:39:23.426Z,48.8
2022-11-26T09:44:42.280Z,49.7
2022-11-26T09:50:02.006Z,48.9
2022-11-26T09:55:20.789Z,48.9
2022-11-26T10:00:39.986Z,48.6
2022-11-26T10:05:59.024Z,49.6
2022-11-26T10:11:17.785Z,49.1
2022-11-26T10:16:36.432Z,49.7
2022-11-26T10:22:00.593Z,49.7
2022-11-26T10:27:18.537Z,49.7
2022-11-26T10:32:37.039Z,48.8
2022-11-26T10:37:54.949Z,48.7
2022-11-26T10:43:13.423Z,49.2
2022-11-26T10:48:31.957Z,48.7
2022-11-26T10:53:50.712Z,49.2
2022-11-26T10:59:09.478Z,49.4
2022-11-26T11:04:28.268Z,48.6
2022-11-26T11:09:46.745Z,49.1
2022-11-26T11:15:04.951Z,48.3
2022-11-26T11:20:23.471Z,49
2022-11-26T11:25:32.226Z,48.5
2022-11-26T11:30:51.017Z,48.9
2022-11-26T11:36:09.240Z,48.4
2022-11-26T11:41:27.566Z,49
2022-11-26T11:46:46.312Z,48.5
2022-11-26T11:52:05.112Z,49
2022-11-26T11:57:23.842Z,48.2
2022-11-26T12:02:42.641Z,48.3
2022-11-26T12:08:01.431Z,48.8
2022-11-26T12:13:19.728Z,48.7
2022-11-26T12:18:38.494Z,48.9
2022-11-26T12:23:57.287Z,48.4
2022-11-26T12:29:15.781Z,49.1
2022-11-26T12:34:34.279Z,48.4
2022-11-26T12:39:55.095Z,48.6
2022-11-26T12:45:18.321Z,48.3
2022-11-26T12:50:39.741Z,48.7
2022-11-26T12:55:58.239Z,48.9
2022-11-26T13:01:16.948Z,48.2
2022-11-26T13:06:35.217Z,48.2
2022-11-26T13:11:53.159Z,49.3
2022-11-26T13:17:11.922Z,50.1
2022-11-26T13:22:30.410Z,50.4
2022-11-26T13:27:49.211Z,50.8
2022-11-26T13:33:07.417Z,49.8
2022-11-26T13:38:25.940Z,50
2022-11-26T13:43:44.454Z,49.9
2022-11-26T13:49:02.924Z,49.7
2022-11-26T13:54:21.126Z,49.6
2022-11-26T13:59:40.040Z,49.7
2022-11-26T14:04:58.567Z,49.7
2022-11-26T14:10:17.040Z,49.7
2022-11-26T14:15:35.537Z,50.4
2022-11-26T14:20:53.705Z,41.7
2022-11-26T14:26:12.487Z,46.6
2022-11-26T14:31:15.902Z,47.9
2022-11-26T14:36:34.390Z,47.6
2022-11-26T14:41:52.877Z,48.7
2022-11-26T14:47:11.104Z,48.8
2022-11-26T14:52:29.579Z,49.3
2022-11-26T14:57:48.361Z,49.2
2022-11-26T15:03:07.237Z,49.4
2022-11-26T15:08:25.701Z,48.9
2022-11-26T15:13:44.204Z,48.8
2022-11-26T15:19:02.709Z,47.5
2022-11-26T15:24:21.202Z,48.4
2022-11-26T15:29:39.137Z,48.2
2022-11-26T15:34:57.643Z,48.3
2022-11-26T15:40:16.380Z,48.2
2022-11-26T15:45:35.019Z,48.8
2022-11-26T15:50:53.502Z,48.8
2022-11-26T15:56:11.961Z,48.8
2022-11-26T16:01:30.766Z,49.2
2022-11-26T16:06:33.990Z,48.1
2022-11-26T16:11:52.144Z,49.1
2022-11-26T16:17:10.425Z,48.6
2022-11-26T16:22:29.498Z,48.4
2022-11-26T16:27:51.224Z,49.2
2022-11-26T16:33:09.438Z,48.5
2022-11-26T16:38:28.039Z,48.9
2022-11-26T16:43:46.519Z,48.4
2022-11-26T16:49:05.002Z,48.7
2022-11-26T16:54:23.792Z,49.2
2022-11-26T16:59:43.688Z,49.4
2022-11-26T17:05:02.057Z,48.7
2022-11-26T17:10:20.841Z,49.5
2022-11-26T17:15:39.291Z,49
2022-11-26T17:20:57.741Z,48.9
2022-11-26T17:26:16.525Z,49.8
2022-11-26T17:31:35.026Z,49.8
2022-11-26T17:36:53.225Z,49.2
2022-11-26T17:42:11.466Z,49.4
2022-11-26T17:47:30.740Z,49.5
2022-11-26T17:52:49.616Z,50.3
2022-11-26T17:58:08.420Z,49.5
2022-11-26T18:03:26.868Z,50.3
2022-11-26T18:08:45.424Z,49.9
2022-11-26T18:14:03.636Z,49.9
2022-11-26T18:19:22.100Z,49.9
2022-11-26T18:24:40.842Z,49.5
2022-11-26T18:29:59.499Z,50
2022-11-26T18:35:17.486Z,50.4
2022-11-26T18:40:36.264Z,50.3
2022-11-26T18:45:54.648Z,49.5
2022-11-26T18:51:13.106Z,50.2
2022-11-26T18:56:31.323Z,49.7
2022-11-26T19:01:49.404Z,50.3
2022-11-26T19:07:07.667Z,49.6
2022-11-26T19:12:26.159Z,49.9
2022-11-26T19:17:44.680Z,49.7
2022-11-26T19:23:03.155Z,49.8
2022-11-26T19:28:21.924Z,50
2022-11-26T19:33:40.429Z,50
2022-11-26T19:38:59.170Z,50.8
2022-11-26T19:44:02.343Z,50.6
2022-11-26T19:49:20.839Z,51
2022-11-26T19:54:39.330Z,50.4
2022-11-26T19:59:57.243Z,50.8
2022-11-26T20:05:15.756Z,50.3
2022-11-26T20:10:34.496Z,51
2022-11-26T20:15:52.423Z,50.2
2022-11-26T20:21:10.932Z,50.6
2022-11-26T20:26:29.701Z,50.9
2022-11-26T20:31:47.921Z,50.6
2022-11-26T20:37:06.138Z,50.7
2022-11-26T20:42:24.581Z,50.3
2022-11-26T20:47:43.368Z,51.2
2022-11-26T20:53:02.153Z,51.2
2022-11-26T20:58:20.957Z,51.3
2022-11-26T21:03:39.146Z,50.7
2022-11-26T21:08:57.947Z,51.7
2022-11-26T21:14:16.668Z,51.1
2022-11-26T21:19:35.456Z,51.8
2022-11-26T21:24:54.240Z,51.4
2022-11-26T21:30:12.432Z,52
2022-11-26T21:35:31.219Z,51.3
2022-11-26T21:40:49.433Z,51.7
2022-11-26T21:46:08.521Z,51.2
2022-11-26T21:51:27.384Z,51.3
2022-11-26T21:56:45.376Z,52
2022-11-26T22:02:03.350Z,52.2
2022-11-26T22:07:22.481Z,51.7
2022-11-26T22:12:41.207Z,51.3
2022-11-26T22:17:59.409Z,51.7
2022-11-26T22:23:18.177Z,52
2022-11-26T22:28:36.987Z,51.9
2022-11-26T22:33:55.189Z,51.9
2022-11-26T22:39:13.685Z,51.4
2022-11-26T22:44:32.195Z,51.3
2022-11-26T22:49:50.941Z,51.9
2022-11-26T22:55:09.426Z,51.6
2022-11-26T23:00:27.931Z,51.2
2022-11-26T23:05:46.375Z,51.5
2022-11-26T23:11:05.129Z,51.2
2022-11-26T23:16:08.049Z,52.3
2022-11-26T23:21:26.922Z,51.6
2022-11-26T23:26:45.668Z,51.4
2022-11-26T23:32:04.193Z,52
2022-11-26T23:37:22.928Z,51.5
2022-11-26T23:42:41.699Z,51.2
2022-11-26T23:48:00.498Z,51.2
2022-11-26T23:53:19.251Z,52.2
2022-11-26T23:58:37.727Z,52.1
